Метеостанция


АнтоновUKKM 240230Z AUTO 00000MPS 6000 // NCD 05/M02 Q1028
БориспольUKBB 240230Z 23001MPS CAVOK 01/01 Q1028 R88/CLRD// NOSIG
Гаврышовка (Винница)UKWW 240230Z 10003MPS CAVOK 03/M00 Q1027 R13/0///65 NOSIG
ДнепропетровскUKDD 240230Z 28003MPS CAVOK 06/M02 Q1028 R26/090070 NOSIG
ЖуляныUKKK 240230Z 30001MPS 9000 NSC 04/M00 Q1028 R26/CLRD70 NOSIG
Запорожье(Мокрая)UKDE 240200Z 00000MPS CAVOK 07/01 Q1029 R02R/090070 NOSIG
Ивано-ФранковскUKLI 240230Z 13004MPS CAVOK 09/02 Q1021 NOSIG
Кривой РогUKDR 240230Z 01001MPS CAVOK 07/M05 Q1028 R18/09//70 NOSIG
ЛьвовUKLL 240230Z 15006MPS CAVOK 10/01 Q1020 R13/CLRD// NOSIG
НиколаевUKON 231400Z 17003MPS 140V210 CAVOK 18/M03 Q1028 R04/090068 NOSIG
ОдессаUKOO 240230Z 05002MPS CAVOK 06/03 Q1028 R16/090060 NOSIG
РовноUKLR 231500Z 15007MPS 080V180 CAVOK 18/M08 Q1024 NOSIG
УжгородUKLU 240200Z 13004MPS 090V240 9999 OVC046 12/04 Q1020 NOSIG
ХарьковUKHH 240230Z 33003MPS CAVOK 07/M01 Q1028 R25/0///81 NOSIG
ЧерновцыUKLN 240230Z 12006MPS CAVOK 09/02 Q1023 NOSIG
Скачать:
Скачать этот файл (Metar_шпаргалка.jpg)Расшифровка METAR[ ]4799 Кб
Вся информация, которая имеется в использовании на сайте и доступная для скачивания, получена исключительно из открытых источников информации сети Интернет, всякое совпадение с данными, имеющими ограничения в доступе, случайное и не является преднамеренным.
^ Наверх